sensor_id;sensor_type;location;lat;lon;timestamp;P1;durP1;ratioP1;P2;durP2;ratioP2
54641;SDS011;40536;53.194;5.728;2023-02-26T00:00:11;9.43;;;8.55;;
54641;SDS011;40536;53.194;5.728;2023-02-26T00:02:42;8.88;;;8.18;;
54641;SDS011;40536;53.194;5.728;2023-02-26T00:05:12;9.18;;;8.38;;
54641;SDS011;40536;53.194;5.728;2023-02-26T00:07:38;10.52;;;8.02;;
54641;SDS011;40536;53.194;5.728;2023-02-26T00:10:05;10.57;;;7.85;;
54641;SDS011;40536;53.194;5.728;2023-02-26T00:12:32;8.20;;;7.40;;
54641;SDS011;40536;53.194;5.728;2023-02-26T00:14:58;8.60;;;7.80;;
54641;SDS011;40536;53.194;5.728;2023-02-26T00:19:56;9.10;;;8.20;;
54641;SDS011;40536;53.194;5.728;2023-02-26T00:22:22;8.27;;;7.57;;
54641;SDS011;40536;53.194;5.728;2023-02-26T00:24:47;11.82;;;8.50;;
54641;SDS011;40536;53.194;5.728;2023-02-26T00:27:13;9.35;;;8.23;;
54641;SDS011;40536;53.194;5.728;2023-02-26T00:29:39;9.68;;;8.85;;
54641;SDS011;40536;53.194;5.728;2023-02-26T00:32:05;10.68;;;8.85;;
54641;SDS011;40536;53.194;5.728;2023-02-26T00:34:31;10.52;;;8.60;;
54641;SDS011;40536;53.194;5.728;2023-02-26T00:39:58;10.30;;;8.93;;
54641;SDS011;40536;53.194;5.728;2023-02-26T00:42:44;10.23;;;9.25;;
54641;SDS011;40536;53.194;5.728;2023-02-26T00:45:11;9.23;;;8.35;;
54641;SDS011;40536;53.194;5.728;2023-02-26T00:47:40;9.95;;;8.27;;
54641;SDS011;40536;53.194;5.728;2023-02-26T00:50:19;8.85;;;7.97;;
54641;SDS011;40536;53.194;5.728;2023-02-26T00:55:21;9.50;;;8.13;;
54641;SDS011;40536;53.194;5.728;2023-02-26T00:57:47;8.30;;;7.65;;
54641;SDS011;40536;53.194;5.728;2023-02-26T01:00:13;8.68;;;7.82;;
54641;SDS011;40536;53.194;5.728;2023-02-26T01:02:39;12.77;;;7.28;;
54641;SDS011;40536;53.194;5.728;2023-02-26T01:05:05;8.05;;;7.15;;
54641;SDS011;40536;53.194;5.728;2023-02-26T01:07:36;9.57;;;7.45;;
54641;SDS011;40536;53.194;5.728;2023-02-26T01:10:26;8.00;;;7.18;;
54641;SDS011;40536;53.194;5.728;2023-02-26T01:12:53;9.70;;;7.30;;
54641;SDS011;40536;53.194;5.728;2023-02-26T01:15:21;9.10;;;7.10;;
54641;SDS011;40536;53.194;5.728;2023-02-26T01:20:41;10.10;;;7.30;;
54641;SDS011;40536;53.194;5.728;2023-02-26T01:23:13;12.20;;;7.87;;
54641;SDS011;40536;53.194;5.728;2023-02-26T01:28:21;10.82;;;7.93;;
54641;SDS011;40536;53.194;5.728;2023-02-26T01:30:47;8.68;;;7.40;;
54641;SDS011;40536;53.194;5.728;2023-02-26T01:33:23;8.10;;;7.30;;
54641;SDS011;40536;53.194;5.728;2023-02-26T01:36:07;7.78;;;7.18;;
54641;SDS011;40536;53.194;5.728;2023-02-26T01:38:41;10.77;;;7.65;;
54641;SDS011;40536;53.194;5.728;2023-02-26T01:41:25;8.38;;;7.15;;
54641;SDS011;40536;53.194;5.728;2023-02-26T01:47:03;9.65;;;7.57;;
54641;SDS011;40536;53.194;5.728;2023-02-26T01:49:35;8.52;;;7.43;;
54641;SDS011;40536;53.194;5.728;2023-02-26T01:52:03;8.23;;;7.43;;
54641;SDS011;40536;53.194;5.728;2023-02-26T01:54:31;9.98;;;7.32;;
54641;SDS011;40536;53.194;5.728;2023-02-26T01:57:00;8.23;;;7.00;;
54641;SDS011;40536;53.194;5.728;2023-02-26T01:59:32;8.10;;;7.30;;
54641;SDS011;40536;53.194;5.728;2023-02-26T02:02:03;8.07;;;6.95;;
54641;SDS011;40536;53.194;5.728;2023-02-26T02:04:31;9.52;;;7.50;;
54641;SDS011;40536;53.194;5.728;2023-02-26T02:06:58;9.88;;;7.90;;
54641;SDS011;40536;53.194;5.728;2023-02-26T02:09:24;9.13;;;8.10;;
54641;SDS011;40536;53.194;5.728;2023-02-26T02:11:53;7.93;;;7.13;;
54641;SDS011;40536;53.194;5.728;2023-02-26T02:14:42;7.88;;;7.13;;
54641;SDS011;40536;53.194;5.728;2023-02-26T02:17:22;9.65;;;7.88;;
54641;SDS011;40536;53.194;5.728;2023-02-26T02:19:54;8.25;;;6.90;;
54641;SDS011;40536;53.194;5.728;2023-02-26T02:25:44;9.93;;;7.28;;
54641;SDS011;40536;53.194;5.728;2023-02-26T02:36:14;8.02;;;7.22;;
54641;SDS011;40536;53.194;5.728;2023-02-26T02:38:50;8.30;;;7.38;;
54641;SDS011;40536;53.194;5.728;2023-02-26T02:44:34;9.63;;;7.50;;
54641;SDS011;40536;53.194;5.728;2023-02-26T02:47:03;8.10;;;7.40;;
54641;SDS011;40536;53.194;5.728;2023-02-26T02:49:35;8.38;;;7.40;;
54641;SDS011;40536;53.194;5.728;2023-02-26T02:52:11;8.35;;;7.60;;
54641;SDS011;40536;53.194;5.728;2023-02-26T02:54:53;8.13;;;7.13;;
54641;SDS011;40536;53.194;5.728;2023-02-26T03:00:18;8.60;;;7.07;;
54641;SDS011;40536;53.194;5.728;2023-02-26T03:02:51;8.52;;;7.28;;
54641;SDS011;40536;53.194;5.728;2023-02-26T03:07:51;8.50;;;7.70;;
54641;SDS011;40536;53.194;5.728;2023-02-26T03:10:19;8.90;;;8.02;;
54641;SDS011;40536;53.194;5.728;2023-02-26T03:12:45;7.50;;;6.90;;
54641;SDS011;40536;53.194;5.728;2023-02-26T03:15:11;8.45;;;7.65;;
54641;SDS011;40536;53.194;5.728;2023-02-26T03:17:42;10.68;;;7.53;;
54641;SDS011;40536;53.194;5.728;2023-02-26T03:20:45;8.95;;;7.35;;
54641;SDS011;40536;53.194;5.728;2023-02-26T03:23:34;8.75;;;8.02;;
54641;SDS011;40536;53.194;5.728;2023-02-26T03:32:24;8.80;;;8.00;;
54641;SDS011;40536;53.194;5.728;2023-02-26T03:37:34;9.02;;;8.15;;
54641;SDS011;40536;53.194;5.728;2023-02-26T03:40:06;8.95;;;8.20;;
54641;SDS011;40536;53.194;5.728;2023-02-26T03:42:47;9.60;;;8.70;;
54641;SDS011;40536;53.194;5.728;2023-02-26T03:45:28;9.85;;;7.93;;
54641;SDS011;40536;53.194;5.728;2023-02-26T03:47:57;9.40;;;8.70;;
54641;SDS011;40536;53.194;5.728;2023-02-26T03:50:26;8.43;;;7.35;;
54641;SDS011;40536;53.194;5.728;2023-02-26T03:52:53;7.88;;;7.15;;
54641;SDS011;40536;53.194;5.728;2023-02-26T03:55:23;8.45;;;7.65;;
54641;SDS011;40536;53.194;5.728;2023-02-26T03:57:54;10.50;;;7.90;;
54641;SDS011;40536;53.194;5.728;2023-02-26T04:00:20;9.48;;;8.60;;
54641;SDS011;40536;53.194;5.728;2023-02-26T04:02:57;9.65;;;8.27;;
54641;SDS011;40536;53.194;5.728;2023-02-26T04:05:36;9.20;;;8.25;;
54641;SDS011;40536;53.194;5.728;2023-02-26T04:08:05;9.15;;;8.35;;
54641;SDS011;40536;53.194;5.728;2023-02-26T04:10:39;8.82;;;8.02;;
54641;SDS011;40536;53.194;5.728;2023-02-26T04:13:16;8.50;;;7.80;;
54641;SDS011;40536;53.194;5.728;2023-02-26T04:15:42;9.25;;;8.00;;
54641;SDS011;40536;53.194;5.728;2023-02-26T04:18:08;8.80;;;8.02;;
54641;SDS011;40536;53.194;5.728;2023-02-26T04:20:33;10.27;;;8.00;;
54641;SDS011;40536;53.194;5.728;2023-02-26T04:22:59;10.35;;;8.25;;
54641;SDS011;40536;53.194;5.728;2023-02-26T04:25:25;10.40;;;8.27;;
54641;SDS011;40536;53.194;5.728;2023-02-26T04:27:50;8.65;;;7.88;;
54641;SDS011;40536;53.194;5.728;2023-02-26T04:30:16;9.63;;;8.10;;
54641;SDS011;40536;53.194;5.728;2023-02-26T04:32:42;9.75;;;8.00;;
54641;SDS011;40536;53.194;5.728;2023-02-26T04:35:07;9.57;;;7.95;;
54641;SDS011;40536;53.194;5.728;2023-02-26T04:37:33;11.13;;;8.68;;
54641;SDS011;40536;53.194;5.728;2023-02-26T04:39:59;10.82;;;8.00;;
54641;SDS011;40536;53.194;5.728;2023-02-26T04:42:24;8.88;;;7.95;;
54641;SDS011;40536;53.194;5.728;2023-02-26T04:44:50;10.80;;;8.30;;
54641;SDS011;40536;53.194;5.728;2023-02-26T04:47:16;8.48;;;7.85;;
54641;SDS011;40536;53.194;5.728;2023-02-26T04:49:41;11.57;;;8.70;;
54641;SDS011;40536;53.194;5.728;2023-02-26T04:52:07;9.18;;;8.20;;
54641;SDS011;40536;53.194;5.728;2023-02-26T04:54:32;9.00;;;8.05;;
54641;SDS011;40536;53.194;5.728;2023-02-26T04:56:58;11.75;;;8.00;;
54641;SDS011;40536;53.194;5.728;2023-02-26T04:59:24;10.60;;;7.80;;
54641;SDS011;40536;53.194;5.728;2023-02-26T05:01:49;9.50;;;7.97;;
54641;SDS011;40536;53.194;5.728;2023-02-26T05:04:15;9.88;;;8.20;;
54641;SDS011;40536;53.194;5.728;2023-02-26T05:06:40;8.65;;;7.90;;
54641;SDS011;40536;53.194;5.728;2023-02-26T05:09:06;8.95;;;8.07;;
54641;SDS011;40536;53.194;5.728;2023-02-26T05:11:32;8.65;;;7.88;;
54641;SDS011;40536;53.194;5.728;2023-02-26T05:13:58;9.07;;;7.97;;
54641;SDS011;40536;53.194;5.728;2023-02-26T05:16:23;8.63;;;7.70;;
54641;SDS011;40536;53.194;5.728;2023-02-26T05:18:49;9.10;;;7.63;;
54641;SDS011;40536;53.194;5.728;2023-02-26T05:21:15;11.15;;;7.90;;
54641;SDS011;40536;53.194;5.728;2023-02-26T05:23:40;8.35;;;7.65;;
54641;SDS011;40536;53.194;5.728;2023-02-26T05:26:06;8.73;;;7.72;;
54641;SDS011;40536;53.194;5.728;2023-02-26T05:28:31;10.65;;;7.68;;
54641;SDS011;40536;53.194;5.728;2023-02-26T05:30:58;8.40;;;7.60;;
54641;SDS011;40536;53.194;5.728;2023-02-26T05:33:23;7.95;;;7.22;;
54641;SDS011;40536;53.194;5.728;2023-02-26T05:35:50;9.00;;;8.18;;
54641;SDS011;40536;53.194;5.728;2023-02-26T05:38:15;8.15;;;7.38;;
54641;SDS011;40536;53.194;5.728;2023-02-26T05:40:41;8.23;;;7.60;;
54641;SDS011;40536;53.194;5.728;2023-02-26T05:43:10;10.30;;;7.78;;
54641;SDS011;40536;53.194;5.728;2023-02-26T05:45:35;9.57;;;7.30;;
54641;SDS011;40536;53.194;5.728;2023-02-26T05:48:01;8.68;;;7.80;;
54641;SDS011;40536;53.194;5.728;2023-02-26T05:50:27;8.25;;;7.50;;
54641;SDS011;40536;53.194;5.728;2023-02-26T05:52:54;16.13;;;8.07;;
54641;SDS011;40536;53.194;5.728;2023-02-26T05:55:21;7.90;;;7.22;;
54641;SDS011;40536;53.194;5.728;2023-02-26T05:57:47;13.32;;;7.50;;
54641;SDS011;40536;53.194;5.728;2023-02-26T06:00:12;10.70;;;7.70;;
54641;SDS011;40536;53.194;5.728;2023-02-26T06:02:39;8.85;;;8.05;;
54641;SDS011;40536;53.194;5.728;2023-02-26T06:05:05;9.50;;;8.00;;
54641;SDS011;40536;53.194;5.728;2023-02-26T06:07:32;8.73;;;7.82;;
54641;SDS011;40536;53.194;5.728;2023-02-26T06:09:57;8.25;;;7.55;;
54641;SDS011;40536;53.194;5.728;2023-02-26T06:12:23;8.95;;;8.35;;
54641;SDS011;40536;53.194;5.728;2023-02-26T06:14:48;8.65;;;7.78;;
54641;SDS011;40536;53.194;5.728;2023-02-26T06:17:14;8.35;;;7.45;;
54641;SDS011;40536;53.194;5.728;2023-02-26T06:19:40;8.82;;;7.90;;
54641;SDS011;40536;53.194;5.728;2023-02-26T06:22:05;8.30;;;7.60;;
54641;SDS011;40536;53.194;5.728;2023-02-26T06:24:31;12.45;;;7.72;;
54641;SDS011;40536;53.194;5.728;2023-02-26T06:26:56;9.40;;;8.30;;
54641;SDS011;40536;53.194;5.728;2023-02-26T06:29:22;9.00;;;8.10;;
54641;SDS011;40536;53.194;5.728;2023-02-26T06:31:48;9.20;;;8.40;;
54641;SDS011;40536;53.194;5.728;2023-02-26T06:34:14;9.07;;;8.38;;
54641;SDS011;40536;53.194;5.728;2023-02-26T06:36:39;9.30;;;8.40;;
54641;SDS011;40536;53.194;5.728;2023-02-26T06:39:05;9.63;;;8.68;;
54641;SDS011;40536;53.194;5.728;2023-02-26T06:41:32;9.13;;;8.30;;
54641;SDS011;40536;53.194;5.728;2023-02-26T06:43:58;8.95;;;8.20;;
54641;SDS011;40536;53.194;5.728;2023-02-26T06:46:23;10.85;;;9.18;;
54641;SDS011;40536;53.194;5.728;2023-02-26T06:48:49;11.00;;;8.75;;
54641;SDS011;40536;53.194;5.728;2023-02-26T06:51:15;9.38;;;8.55;;
54641;SDS011;40536;53.194;5.728;2023-02-26T06:53:40;9.48;;;8.40;;
54641;SDS011;40536;53.194;5.728;2023-02-26T06:56:06;9.80;;;8.95;;
54641;SDS011;40536;53.194;5.728;2023-02-26T06:58:35;9.60;;;8.70;;
54641;SDS011;40536;53.194;5.728;2023-02-26T07:01:02;10.70;;;9.90;;
54641;SDS011;40536;53.194;5.728;2023-02-26T07:03:28;10.98;;;9.98;;
54641;SDS011;40536;53.194;5.728;2023-02-26T07:05:55;11.18;;;10.25;;
54641;SDS011;40536;53.194;5.728;2023-02-26T07:08:21;11.82;;;10.82;;
54641;SDS011;40536;53.194;5.728;2023-02-26T07:10:48;11.77;;;10.77;;
54641;SDS011;40536;53.194;5.728;2023-02-26T07:13:14;12.95;;;12.13;;
54641;SDS011;40536;53.194;5.728;2023-02-26T07:15:41;13.25;;;11.98;;
54641;SDS011;40536;53.194;5.728;2023-02-26T07:18:06;13.23;;;12.23;;
54641;SDS011;40536;53.194;5.728;2023-02-26T07:20:32;13.45;;;12.30;;
54641;SDS011;40536;53.194;5.728;2023-02-26T07:22:58;13.30;;;12.32;;
54641;SDS011;40536;53.194;5.728;2023-02-26T07:25:24;13.30;;;12.30;;
54641;SDS011;40536;53.194;5.728;2023-02-26T07:27:50;12.85;;;11.88;;
54641;SDS011;40536;53.194;5.728;2023-02-26T07:30:16;14.02;;;13.00;;
54641;SDS011;40536;53.194;5.728;2023-02-26T07:32:42;14.80;;;13.43;;
54641;SDS011;40536;53.194;5.728;2023-02-26T07:35:08;14.57;;;13.57;;
54641;SDS011;40536;53.194;5.728;2023-02-26T07:37:35;13.85;;;12.90;;
54641;SDS011;40536;53.194;5.728;2023-02-26T07:40:02;13.95;;;12.95;;
54641;SDS011;40536;53.194;5.728;2023-02-26T07:42:28;13.25;;;12.23;;
54641;SDS011;40536;53.194;5.728;2023-02-26T07:44:54;12.80;;;11.90;;
54641;SDS011;40536;53.194;5.728;2023-02-26T07:47:19;13.57;;;12.38;;
54641;SDS011;40536;53.194;5.728;2023-02-26T07:49:45;12.68;;;11.52;;
54641;SDS011;40536;53.194;5.728;2023-02-26T07:52:11;12.05;;;11.25;;
54641;SDS011;40536;53.194;5.728;2023-02-26T07:54:36;12.50;;;11.20;;
54641;SDS011;40536;53.194;5.728;2023-02-26T07:57:02;12.38;;;11.25;;
54641;SDS011;40536;53.194;5.728;2023-02-26T07:59:28;13.45;;;11.23;;
54641;SDS011;40536;53.194;5.728;2023-02-26T08:01:54;12.20;;;11.15;;
54641;SDS011;40536;53.194;5.728;2023-02-26T08:04:20;11.13;;;10.02;;
54641;SDS011;40536;53.194;5.728;2023-02-26T08:06:45;11.32;;;10.15;;
54641;SDS011;40536;53.194;5.728;2023-02-26T08:09:11;10.00;;;9.00;;
54641;SDS011;40536;53.194;5.728;2023-02-26T08:11:38;10.30;;;9.32;;
54641;SDS011;40536;53.194;5.728;2023-02-26T08:14:07;9.80;;;8.88;;
54641;SDS011;40536;53.194;5.728;2023-02-26T08:16:34;9.63;;;8.82;;
54641;SDS011;40536;53.194;5.728;2023-02-26T08:19:00;10.65;;;9.70;;
54641;SDS011;40536;53.194;5.728;2023-02-26T08:21:26;11.30;;;10.38;;
54641;SDS011;40536;53.194;5.728;2023-02-26T08:23:52;11.50;;;10.40;;
54641;SDS011;40536;53.194;5.728;2023-02-26T08:26:18;12.07;;;11.20;;
54641;SDS011;40536;53.194;5.728;2023-02-26T08:28:44;12.52;;;11.60;;
54641;SDS011;40536;53.194;5.728;2023-02-26T08:31:11;11.68;;;10.85;;
54641;SDS011;40536;53.194;5.728;2023-02-26T08:33:37;11.98;;;11.00;;
54641;SDS011;40536;53.194;5.728;2023-02-26T08:36:04;14.68;;;12.32;;
54641;SDS011;40536;53.194;5.728;2023-02-26T08:38:30;13.10;;;11.80;;
54641;SDS011;40536;53.194;5.728;2023-02-26T08:40:56;14.27;;;12.32;;
54641;SDS011;40536;53.194;5.728;2023-02-26T08:43:22;12.20;;;11.27;;
54641;SDS011;40536;53.194;5.728;2023-02-26T08:45:50;12.10;;;11.18;;
54641;SDS011;40536;53.194;5.728;2023-02-26T08:48:17;10.95;;;9.88;;
54641;SDS011;40536;53.194;5.728;2023-02-26T08:50:42;9.93;;;8.93;;
54641;SDS011;40536;53.194;5.728;2023-02-26T08:53:08;8.32;;;7.53;;
54641;SDS011;40536;53.194;5.728;2023-02-26T08:55:36;8.05;;;7.22;;
54641;SDS011;40536;53.194;5.728;2023-02-26T08:58:07;8.15;;;7.00;;
54641;SDS011;40536;53.194;5.728;2023-02-26T09:00:36;6.80;;;6.00;;
54641;SDS011;40536;53.194;5.728;2023-02-26T09:03:01;9.45;;;8.45;;
54641;SDS011;40536;53.194;5.728;2023-02-26T09:05:27;10.85;;;9.82;;
54641;SDS011;40536;53.194;5.728;2023-02-26T09:07:53;10.65;;;9.70;;
54641;SDS011;40536;53.194;5.728;2023-02-26T09:10:18;9.02;;;8.30;;
54641;SDS011;40536;53.194;5.728;2023-02-26T09:12:44;9.10;;;8.20;;
54641;SDS011;40536;53.194;5.728;2023-02-26T09:15:11;9.98;;;9.05;;
54641;SDS011;40536;53.194;5.728;2023-02-26T09:17:38;9.85;;;8.52;;
54641;SDS011;40536;53.194;5.728;2023-02-26T09:20:04;8.57;;;7.88;;
54641;SDS011;40536;53.194;5.728;2023-02-26T09:22:31;11.02;;;6.80;;
54641;SDS011;40536;53.194;5.728;2023-02-26T09:24:56;9.63;;;6.50;;
54641;SDS011;40536;53.194;5.728;2023-02-26T09:27:22;6.60;;;6.00;;
54641;SDS011;40536;53.194;5.728;2023-02-26T09:29:49;7.13;;;5.53;;
54641;SDS011;40536;53.194;5.728;2023-02-26T09:32:14;7.43;;;5.80;;
54641;SDS011;40536;53.194;5.728;2023-02-26T09:34:40;6.28;;;5.60;;
54641;SDS011;40536;53.194;5.728;2023-02-26T09:37:06;8.48;;;5.63;;
54641;SDS011;40536;53.194;5.728;2023-02-26T09:39:33;6.20;;;5.70;;
54641;SDS011;40536;53.194;5.728;2023-02-26T09:44:51;6.45;;;5.85;;
54641;SDS011;40536;53.194;5.728;2023-02-26T09:47:23;6.22;;;5.63;;
54641;SDS011;40536;53.194;5.728;2023-02-26T09:50:03;7.72;;;6.07;;
54641;SDS011;40536;53.194;5.728;2023-02-26T09:52:47;6.13;;;5.60;;
54641;SDS011;40536;53.194;5.728;2023-02-26T09:55:35;6.60;;;5.93;;
54641;SDS011;40536;53.194;5.728;2023-02-26T09:58:17;7.68;;;5.90;;
54641;SDS011;40536;53.194;5.728;2023-02-26T10:01:09;6.97;;;6.28;;
54641;SDS011;40536;53.194;5.728;2023-02-26T10:09:14;6.20;;;5.60;;
54641;SDS011;40536;53.194;5.728;2023-02-26T10:12:15;7.80;;;5.65;;
54641;SDS011;40536;53.194;5.728;2023-02-26T10:23:01;7.53;;;5.78;;
54641;SDS011;40536;53.194;5.728;2023-02-26T10:26:04;6.97;;;5.63;;
54641;SDS011;40536;53.194;5.728;2023-02-26T10:28:41;7.28;;;5.90;;
54641;SDS011;40536;53.194;5.728;2023-02-26T10:33:48;8.63;;;6.50;;
54641;SDS011;40536;53.194;5.728;2023-02-26T10:36:25;7.38;;;5.90;;
54641;SDS011;40536;53.194;5.728;2023-02-26T10:39:02;6.90;;;6.10;;
54641;SDS011;40536;53.194;5.728;2023-02-26T10:41:35;7.90;;;6.15;;
54641;SDS011;40536;53.194;5.728;2023-02-26T10:44:11;6.88;;;6.07;;
54641;SDS011;40536;53.194;5.728;2023-02-26T10:46:47;6.20;;;5.60;;
54641;SDS011;40536;53.194;5.728;2023-02-26T10:49:46;7.65;;;5.90;;
54641;SDS011;40536;53.194;5.728;2023-02-26T10:52:20;8.15;;;6.00;;
54641;SDS011;40536;53.194;5.728;2023-02-26T10:55:02;8.55;;;5.93;;
54641;SDS011;40536;53.194;5.728;2023-02-26T10:57:41;6.43;;;5.65;;
54641;SDS011;40536;53.194;5.728;2023-02-26T11:00:16;8.32;;;6.18;;
54641;SDS011;40536;53.194;5.728;2023-02-26T11:02:48;7.00;;;5.53;;
54641;SDS011;40536;53.194;5.728;2023-02-26T11:05:23;8.82;;;5.90;;
54641;SDS011;40536;53.194;5.728;2023-02-26T11:07:56;8.55;;;5.50;;
54641;SDS011;40536;53.194;5.728;2023-02-26T11:11:09;7.40;;;5.63;;
54641;SDS011;40536;53.194;5.728;2023-02-26T11:13:17;6.03;;;5.47;;
54641;SDS011;40536;53.194;5.728;2023-02-26T11:15:45;9.25;;;5.88;;
54641;SDS011;40536;53.194;5.728;2023-02-26T11:18:16;6.10;;;5.60;;
54641;SDS011;40536;53.194;5.728;2023-02-26T11:20:55;10.32;;;8.00;;
54641;SDS011;40536;53.194;5.728;2023-02-26T11:23:25;6.43;;;5.72;;
54641;SDS011;40536;53.194;5.728;2023-02-26T11:26:08;8.43;;;7.05;;
54641;SDS011;40536;53.194;5.728;2023-02-26T11:28:44;8.88;;;5.80;;
54641;SDS011;40536;53.194;5.728;2023-02-26T11:31:14;6.53;;;5.93;;
54641;SDS011;40536;53.194;5.728;2023-02-26T11:33:48;6.93;;;6.00;;
54641;SDS011;40536;53.194;5.728;2023-02-26T11:36:21;8.00;;;5.80;;
54641;SDS011;40536;53.194;5.728;2023-02-26T11:38:54;6.85;;;5.57;;
54641;SDS011;40536;53.194;5.728;2023-02-26T11:41:22;7.43;;;6.55;;
54641;SDS011;40536;53.194;5.728;2023-02-26T11:43:58;6.93;;;6.22;;
54641;SDS011;40536;53.194;5.728;2023-02-26T11:46:30;8.77;;;5.75;;
54641;SDS011;40536;53.194;5.728;2023-02-26T11:49:07;6.60;;;6.00;;
54641;SDS011;40536;53.194;5.728;2023-02-26T11:51:36;7.93;;;6.15;;
54641;SDS011;40536;53.194;5.728;2023-02-26T11:54:09;7.43;;;5.95;;
54641;SDS011;40536;53.194;5.728;2023-02-26T11:56:48;9.18;;;6.03;;
54641;SDS011;40536;53.194;5.728;2023-02-26T11:59:20;8.82;;;5.85;;
54641;SDS011;40536;53.194;5.728;2023-02-26T12:01:47;12.75;;;6.00;;
54641;SDS011;40536;53.194;5.728;2023-02-26T12:04:18;7.43;;;6.40;;
54641;SDS011;40536;53.194;5.728;2023-02-26T12:06:46;9.93;;;6.60;;
54641;SDS011;40536;53.194;5.728;2023-02-26T12:09:14;7.65;;;6.05;;
54641;SDS011;40536;53.194;5.728;2023-02-26T12:11:59;7.97;;;6.28;;
54641;SDS011;40536;53.194;5.728;2023-02-26T12:14:38;10.02;;;5.97;;
54641;SDS011;40536;53.194;5.728;2023-02-26T12:20:19;7.18;;;6.43;;
54641;SDS011;40536;53.194;5.728;2023-02-26T12:48:14;8.23;;;6.60;;
54641;SDS011;40536;53.194;5.728;2023-02-26T12:53:39;9.15;;;7.45;;
54641;SDS011;40536;53.194;5.728;2023-02-26T13:04:50;9.32;;;6.10;;
54641;SDS011;40536;53.194;5.728;2023-02-26T13:18:13;6.75;;;6.15;;
54641;SDS011;40536;53.194;5.728;2023-02-26T13:20:58;7.22;;;5.75;;
54641;SDS011;40536;53.194;5.728;2023-02-26T13:23:30;9.63;;;5.95;;
54641;SDS011;40536;53.194;5.728;2023-02-26T13:26:01;7.55;;;5.63;;
54641;SDS011;40536;53.194;5.728;2023-02-26T13:28:35;7.57;;;6.45;;
54641;SDS011;40536;53.194;5.728;2023-02-26T13:31:10;6.68;;;5.90;;
54641;SDS011;40536;53.194;5.728;2023-02-26T13:33:41;7.82;;;6.50;;
54641;SDS011;40536;53.194;5.728;2023-02-26T13:36:08;8.93;;;6.40;;
54641;SDS011;40536;53.194;5.728;2023-02-26T13:41:15;9.18;;;6.25;;
54641;SDS011;40536;53.194;5.728;2023-02-26T13:44:01;9.43;;;7.07;;
54641;SDS011;40536;53.194;5.728;2023-02-26T13:46:51;8.75;;;6.80;;
54641;SDS011;40536;53.194;5.728;2023-02-26T13:49:54;7.53;;;6.65;;
54641;SDS011;40536;53.194;5.728;2023-02-26T13:52:26;8.48;;;6.45;;
54641;SDS011;40536;53.194;5.728;2023-02-26T13:54:57;6.45;;;5.82;;
54641;SDS011;40536;53.194;5.728;2023-02-26T13:57:26;9.82;;;5.80;;
54641;SDS011;40536;53.194;5.728;2023-02-26T14:02:49;6.95;;;5.75;;
54641;SDS011;40536;53.194;5.728;2023-02-26T14:05:30;6.28;;;5.65;;
54641;SDS011;40536;53.194;5.728;2023-02-26T14:08:17;7.80;;;6.10;;
54641;SDS011;40536;53.194;5.728;2023-02-26T14:11:02;8.65;;;5.65;;
54641;SDS011;40536;53.194;5.728;2023-02-26T14:13:36;7.25;;;6.47;;
54641;SDS011;40536;53.194;5.728;2023-02-26T14:16:11;11.88;;;6.40;;
54641;SDS011;40536;53.194;5.728;2023-02-26T14:24:02;7.28;;;6.00;;
54641;SDS011;40536;53.194;5.728;2023-02-26T14:26:33;8.02;;;5.70;;
54641;SDS011;40536;53.194;5.728;2023-02-26T14:42:27;6.78;;;6.10;;
54641;SDS011;40536;53.194;5.728;2023-02-26T14:45:05;8.90;;;6.25;;
54641;SDS011;40536;53.194;5.728;2023-02-26T14:47:57;9.43;;;6.15;;
54641;SDS011;40536;53.194;5.728;2023-02-26T14:50:25;7.93;;;6.28;;
54641;SDS011;40536;53.194;5.728;2023-02-26T14:56:00;7.28;;;6.40;;
54641;SDS011;40536;53.194;5.728;2023-02-26T14:59:04;8.35;;;6.30;;
54641;SDS011;40536;53.194;5.728;2023-02-26T15:10:02;13.02;;;6.07;;
54641;SDS011;40536;53.194;5.728;2023-02-26T15:20:49;7.53;;;5.30;;
54641;SDS011;40536;53.194;5.728;2023-02-26T15:26:12;10.85;;;5.65;;
54641;SDS011;40536;53.194;5.728;2023-02-26T15:28:58;9.75;;;5.97;;
54641;SDS011;40536;53.194;5.728;2023-02-26T15:31:34;9.70;;;5.60;;
54641;SDS011;40536;53.194;5.728;2023-02-26T15:34:04;9.02;;;5.88;;
54641;SDS011;40536;53.194;5.728;2023-02-26T15:36:30;8.63;;;5.97;;
54641;SDS011;40536;53.194;5.728;2023-02-26T15:38:58;8.52;;;6.13;;
54641;SDS011;40536;53.194;5.728;2023-02-26T15:41:29;8.10;;;5.95;;
54641;SDS011;40536;53.194;5.728;2023-02-26T15:43:58;7.22;;;6.15;;
54641;SDS011;40536;53.194;5.728;2023-02-26T15:46:34;18.45;;;7.75;;
54641;SDS011;40536;53.194;5.728;2023-02-26T15:49:07;7.13;;;6.32;;
54641;SDS011;40536;53.194;5.728;2023-02-26T15:51:37;8.30;;;6.50;;
54641;SDS011;40536;53.194;5.728;2023-02-26T15:54:04;10.30;;;6.57;;
54641;SDS011;40536;53.194;5.728;2023-02-26T15:56:34;9.73;;;6.32;;
54641;SDS011;40536;53.194;5.728;2023-02-26T15:59:05;9.45;;;6.80;;
54641;SDS011;40536;53.194;5.728;2023-02-26T16:01:35;7.78;;;6.57;;
54641;SDS011;40536;53.194;5.728;2023-02-26T16:04:02;10.18;;;6.18;;
54641;SDS011;40536;53.194;5.728;2023-02-26T16:06:42;7.53;;;6.00;;
54641;SDS011;40536;53.194;5.728;2023-02-26T16:09:16;9.20;;;6.50;;
54641;SDS011;40536;53.194;5.728;2023-02-26T16:11:43;7.93;;;6.10;;
54641;SDS011;40536;53.194;5.728;2023-02-26T16:14:13;6.63;;;5.97;;
54641;SDS011;40536;53.194;5.728;2023-02-26T16:16:43;9.20;;;6.30;;
54641;SDS011;40536;53.194;5.728;2023-02-26T16:19:14;7.10;;;6.38;;
54641;SDS011;40536;53.194;5.728;2023-02-26T16:21:43;7.55;;;6.60;;
54641;SDS011;40536;53.194;5.728;2023-02-26T16:24:14;9.15;;;6.63;;
54641;SDS011;40536;53.194;5.728;2023-02-26T16:29:13;8.02;;;5.78;;
54641;SDS011;40536;53.194;5.728;2023-02-26T16:31:42;10.98;;;6.30;;
54641;SDS011;40536;53.194;5.728;2023-02-26T16:34:21;10.10;;;7.07;;
54641;SDS011;40536;53.194;5.728;2023-02-26T16:36:47;9.32;;;6.70;;
54641;SDS011;40536;53.194;5.728;2023-02-26T16:39:19;9.32;;;5.95;;
54641;SDS011;40536;53.194;5.728;2023-02-26T16:42:32;10.27;;;6.20;;
54641;SDS011;40536;53.194;5.728;2023-02-26T16:47:46;8.32;;;6.72;;
54641;SDS011;40536;53.194;5.728;2023-02-26T16:50:19;7.60;;;6.32;;
54641;SDS011;40536;53.194;5.728;2023-02-26T16:55:23;8.00;;;6.38;;
54641;SDS011;40536;53.194;5.728;2023-02-26T16:57:51;9.45;;;6.60;;
54641;SDS011;40536;53.194;5.728;2023-02-26T17:02:55;11.63;;;7.78;;
54641;SDS011;40536;53.194;5.728;2023-02-26T17:05:35;9.95;;;7.00;;
54641;SDS011;40536;53.194;5.728;2023-02-26T17:08:18;10.65;;;6.78;;
54641;SDS011;40536;53.194;5.728;2023-02-26T17:10:53;7.70;;;6.75;;
54641;SDS011;40536;53.194;5.728;2023-02-26T17:13:25;7.43;;;6.68;;
54641;SDS011;40536;53.194;5.728;2023-02-26T17:16:02;8.75;;;6.72;;
54641;SDS011;40536;53.194;5.728;2023-02-26T17:18:30;7.32;;;6.63;;
54641;SDS011;40536;53.194;5.728;2023-02-26T17:20:56;8.20;;;6.68;;
54641;SDS011;40536;53.194;5.728;2023-02-26T17:23:25;11.18;;;7.10;;
54641;SDS011;40536;53.194;5.728;2023-02-26T17:25:53;12.45;;;6.80;;
54641;SDS011;40536;53.194;5.728;2023-02-26T17:28:28;10.45;;;6.93;;
54641;SDS011;40536;53.194;5.728;2023-02-26T17:30:58;8.70;;;7.68;;
54641;SDS011;40536;53.194;5.728;2023-02-26T17:33:24;8.48;;;7.57;;
54641;SDS011;40536;53.194;5.728;2023-02-26T17:35:54;8.50;;;7.75;;
54641;SDS011;40536;53.194;5.728;2023-02-26T17:38:22;10.55;;;7.78;;
54641;SDS011;40536;53.194;5.728;2023-02-26T17:40:47;11.75;;;8.25;;
54641;SDS011;40536;53.194;5.728;2023-02-26T17:43:14;10.68;;;8.75;;
54641;SDS011;40536;53.194;5.728;2023-02-26T17:45:40;9.32;;;8.40;;
54641;SDS011;40536;53.194;5.728;2023-02-26T17:48:07;9.93;;;8.68;;
54641;SDS011;40536;53.194;5.728;2023-02-26T17:50:41;10.05;;;9.23;;
54641;SDS011;40536;53.194;5.728;2023-02-26T17:53:22;13.88;;;11.75;;
54641;SDS011;40536;53.194;5.728;2023-02-26T17:55:53;11.20;;;10.35;;